sensor_id;sensor_type;location;lat;lon;timestamp;temperature;humidity
8792;DHT22;4432;50.890;4.744;2022-08-30T00:00:11;16.80;99.90
8792;DHT22;4432;50.890;4.744;2022-08-30T00:02:57;16.80;99.90
8792;DHT22;4432;50.890;4.744;2022-08-30T00:05:26;16.70;99.90
8792;DHT22;4432;50.890;4.744;2022-08-30T00:07:52;16.70;99.90
8792;DHT22;4432;50.890;4.744;2022-08-30T00:10:18;16.60;99.90
8792;DHT22;4432;50.890;4.744;2022-08-30T00:12:44;16.60;99.90
8792;DHT22;4432;50.890;4.744;2022-08-30T00:15:11;16.60;99.90
8792;DHT22;4432;50.890;4.744;2022-08-30T00:17:37;16.60;99.90
8792;DHT22;4432;50.890;4.744;2022-08-30T00:20:05;16.60;99.90
8792;DHT22;4432;50.890;4.744;2022-08-30T00:22:31;16.60;99.90
8792;DHT22;4432;50.890;4.744;2022-08-30T00:24:58;16.60;99.90
8792;DHT22;4432;50.890;4.744;2022-08-30T00:27:26;16.50;99.90
8792;DHT22;4432;50.890;4.744;2022-08-30T00:29:52;16.50;99.90
8792;DHT22;4432;50.890;4.744;2022-08-30T00:32:19;16.50;99.90
8792;DHT22;4432;50.890;4.744;2022-08-30T00:34:50;16.50;99.90
8792;DHT22;4432;50.890;4.744;2022-08-30T00:37:16;16.60;99.90
8792;DHT22;4432;50.890;4.744;2022-08-30T00:39:43;16.70;99.90
8792;DHT22;4432;50.890;4.744;2022-08-30T00:42:10;16.80;99.90
8792;DHT22;4432;50.890;4.744;2022-08-30T00:44:37;16.90;99.90
8792;DHT22;4432;50.890;4.744;2022-08-30T00:47:03;16.90;99.90
8792;DHT22;4432;50.890;4.744;2022-08-30T00:49:30;17.00;99.90
8792;DHT22;4432;50.890;4.744;2022-08-30T00:51:57;17.00;99.90
8792;DHT22;4432;50.890;4.744;2022-08-30T00:54:24;17.10;99.90
8792;DHT22;4432;50.890;4.744;2022-08-30T00:56:50;17.20;99.90
8792;DHT22;4432;50.890;4.744;2022-08-30T00:59:18;17.30;99.90
8792;DHT22;4432;50.890;4.744;2022-08-30T01:01:45;17.30;99.90
8792;DHT22;4432;50.890;4.744;2022-08-30T01:04:11;17.30;99.90
8792;DHT22;4432;50.890;4.744;2022-08-30T01:06:39;17.20;99.90
8792;DHT22;4432;50.890;4.744;2022-08-30T01:09:06;17.10;99.90
8792;DHT22;4432;50.890;4.744;2022-08-30T01:11:33;17.10;99.90
8792;DHT22;4432;50.890;4.744;2022-08-30T01:14:02;17.00;99.90
8792;DHT22;4432;50.890;4.744;2022-08-30T01:16:30;16.90;99.90
8792;DHT22;4432;50.890;4.744;2022-08-30T01:18:57;17.00;99.90
8792;DHT22;4432;50.890;4.744;2022-08-30T01:21:48;17.10;99.90
8792;DHT22;4432;50.890;4.744;2022-08-30T01:24:17;17.10;99.90
8792;DHT22;4432;50.890;4.744;2022-08-30T01:26:43;17.20;99.90
8792;DHT22;4432;50.890;4.744;2022-08-30T01:29:17;17.10;99.90
8792;DHT22;4432;50.890;4.744;2022-08-30T01:31:44;17.00;99.90
8792;DHT22;4432;50.890;4.744;2022-08-30T01:34:11;17.00;99.90
8792;DHT22;4432;50.890;4.744;2022-08-30T01:36:38;17.10;99.90
8792;DHT22;4432;50.890;4.744;2022-08-30T01:39:06;17.00;99.90
8792;DHT22;4432;50.890;4.744;2022-08-30T01:41:34;17.00;99.90
8792;DHT22;4432;50.890;4.744;2022-08-30T01:44:05;16.90;99.90
8792;DHT22;4432;50.890;4.744;2022-08-30T01:46:34;16.90;99.90
8792;DHT22;4432;50.890;4.744;2022-08-30T01:49:02;16.80;99.90
8792;DHT22;4432;50.890;4.744;2022-08-30T01:51:29;16.70;99.90
8792;DHT22;4432;50.890;4.744;2022-08-30T01:53:55;16.70;99.90
8792;DHT22;4432;50.890;4.744;2022-08-30T01:56:25;16.60;99.90
8792;DHT22;4432;50.890;4.744;2022-08-30T01:58:52;16.60;99.90
8792;DHT22;4432;50.890;4.744;2022-08-30T02:01:21;16.70;99.90
8792;DHT22;4432;50.890;4.744;2022-08-30T02:03:47;16.70;99.90
8792;DHT22;4432;50.890;4.744;2022-08-30T02:06:17;16.60;99.90
8792;DHT22;4432;50.890;4.744;2022-08-30T02:08:43;16.60;99.90
8792;DHT22;4432;50.890;4.744;2022-08-30T02:11:10;16.60;99.90
8792;DHT22;4432;50.890;4.744;2022-08-30T02:13:38;16.60;99.90
8792;DHT22;4432;50.890;4.744;2022-08-30T02:16:10;16.40;99.90
8792;DHT22;4432;50.890;4.744;2022-08-30T02:18:37;16.30;99.90
8792;DHT22;4432;50.890;4.744;2022-08-30T02:21:07;16.20;99.90
8792;DHT22;4432;50.890;4.744;2022-08-30T02:23:35;16.10;99.90
8792;DHT22;4432;50.890;4.744;2022-08-30T02:26:00;16.10;99.90
8792;DHT22;4432;50.890;4.744;2022-08-30T02:28:26;16.20;99.90
8792;DHT22;4432;50.890;4.744;2022-08-30T02:30:52;16.20;99.90
8792;DHT22;4432;50.890;4.744;2022-08-30T02:33:19;16.20;99.90
8792;DHT22;4432;50.890;4.744;2022-08-30T02:35:45;16.20;99.90
8792;DHT22;4432;50.890;4.744;2022-08-30T02:38:11;16.20;99.90
8792;DHT22;4432;50.890;4.744;2022-08-30T02:40:37;16.10;99.90
8792;DHT22;4432;50.890;4.744;2022-08-30T02:43:02;16.00;99.90
8792;DHT22;4432;50.890;4.744;2022-08-30T02:45:28;15.90;99.90
8792;DHT22;4432;50.890;4.744;2022-08-30T02:47:54;15.80;99.90
8792;DHT22;4432;50.890;4.744;2022-08-30T02:50:21;15.70;99.90
8792;DHT22;4432;50.890;4.744;2022-08-30T02:52:47;15.60;99.90
8792;DHT22;4432;50.890;4.744;2022-08-30T02:55:14;15.60;99.90
8792;DHT22;4432;50.890;4.744;2022-08-30T02:57:39;15.50;99.90
8792;DHT22;4432;50.890;4.744;2022-08-30T03:00:07;15.50;99.90
8792;DHT22;4432;50.890;4.744;2022-08-30T03:02:34;15.40;99.90
8792;DHT22;4432;50.890;4.744;2022-08-30T03:05:00;15.40;99.90
8792;DHT22;4432;50.890;4.744;2022-08-30T03:07:26;15.40;99.90
8792;DHT22;4432;50.890;4.744;2022-08-30T03:09:51;15.50;99.90
8792;DHT22;4432;50.890;4.744;2022-08-30T03:12:17;15.60;99.90
8792;DHT22;4432;50.890;4.744;2022-08-30T03:14:43;15.50;99.90
8792;DHT22;4432;50.890;4.744;2022-08-30T03:17:09;15.50;99.90
8792;DHT22;4432;50.890;4.744;2022-08-30T03:19:36;15.50;99.90
8792;DHT22;4432;50.890;4.744;2022-08-30T03:22:04;15.60;99.90
8792;DHT22;4432;50.890;4.744;2022-08-30T03:24:30;15.60;99.90
8792;DHT22;4432;50.890;4.744;2022-08-30T03:26:56;15.70;99.90
8792;DHT22;4432;50.890;4.744;2022-08-30T03:29:22;15.60;99.90
8792;DHT22;4432;50.890;4.744;2022-08-30T03:31:48;15.60;99.90
8792;DHT22;4432;50.890;4.744;2022-08-30T03:34:14;15.50;99.90
8792;DHT22;4432;50.890;4.744;2022-08-30T03:36:40;15.50;99.90
8792;DHT22;4432;50.890;4.744;2022-08-30T03:39:07;15.50;99.90
8792;DHT22;4432;50.890;4.744;2022-08-30T03:41:33;15.50;99.90
8792;DHT22;4432;50.890;4.744;2022-08-30T03:44:00;15.50;99.90
8792;DHT22;4432;50.890;4.744;2022-08-30T03:46:27;15.60;99.90
8792;DHT22;4432;50.890;4.744;2022-08-30T03:48:53;15.60;99.90
8792;DHT22;4432;50.890;4.744;2022-08-30T03:51:23;15.70;99.90
8792;DHT22;4432;50.890;4.744;2022-08-30T03:53:49;15.80;99.90
8792;DHT22;4432;50.890;4.744;2022-08-30T03:56:15;15.90;99.90
8792;DHT22;4432;50.890;4.744;2022-08-30T03:58:41;15.90;99.90
8792;DHT22;4432;50.890;4.744;2022-08-30T04:01:07;15.90;99.90
8792;DHT22;4432;50.890;4.744;2022-08-30T04:03:33;15.90;99.90
8792;DHT22;4432;50.890;4.744;2022-08-30T04:05:59;16.00;99.90
8792;DHT22;4432;50.890;4.744;2022-08-30T04:08:25;16.00;99.90
8792;DHT22;4432;50.890;4.744;2022-08-30T04:10:52;16.00;99.90
8792;DHT22;4432;50.890;4.744;2022-08-30T04:13:19;15.90;99.90
8792;DHT22;4432;50.890;4.744;2022-08-30T04:15:45;15.90;99.90
8792;DHT22;4432;50.890;4.744;2022-08-30T04:18:11;15.80;99.90
8792;DHT22;4432;50.890;4.744;2022-08-30T04:20:37;15.80;99.90
8792;DHT22;4432;50.890;4.744;2022-08-30T04:23:06;15.80;99.90
8792;DHT22;4432;50.890;4.744;2022-08-30T04:25:34;15.70;99.90
8792;DHT22;4432;50.890;4.744;2022-08-30T04:28:00;15.60;99.90
8792;DHT22;4432;50.890;4.744;2022-08-30T04:30:26;15.60;99.90
8792;DHT22;4432;50.890;4.744;2022-08-30T04:32:52;15.50;99.90
8792;DHT22;4432;50.890;4.744;2022-08-30T04:35:18;15.50;99.90
8792;DHT22;4432;50.890;4.744;2022-08-30T04:37:43;15.50;99.90
8792;DHT22;4432;50.890;4.744;2022-08-30T04:40:09;15.40;99.90
8792;DHT22;4432;50.890;4.744;2022-08-30T04:42:35;15.40;99.90
8792;DHT22;4432;50.890;4.744;2022-08-30T04:45:03;15.30;99.90
8792;DHT22;4432;50.890;4.744;2022-08-30T04:47:30;15.30;99.90
8792;DHT22;4432;50.890;4.744;2022-08-30T04:49:56;15.20;99.90
8792;DHT22;4432;50.890;4.744;2022-08-30T04:52:22;15.20;99.90
8792;DHT22;4432;50.890;4.744;2022-08-30T04:54:56;15.20;99.90
8792;DHT22;4432;50.890;4.744;2022-08-30T04:57:22;15.20;99.90
8792;DHT22;4432;50.890;4.744;2022-08-30T04:59:48;15.20;99.90
8792;DHT22;4432;50.890;4.744;2022-08-30T05:02:14;15.20;99.90
8792;DHT22;4432;50.890;4.744;2022-08-30T05:04:39;15.30;99.90
8792;DHT22;4432;50.890;4.744;2022-08-30T05:07:29;15.40;99.90
8792;DHT22;4432;50.890;4.744;2022-08-30T05:09:55;15.40;99.90
8792;DHT22;4432;50.890;4.744;2022-08-30T05:12:20;15.40;99.90
8792;DHT22;4432;50.890;4.744;2022-08-30T05:14:46;15.30;99.90
8792;DHT22;4432;50.890;4.744;2022-08-30T05:17:12;15.30;99.90
8792;DHT22;4432;50.890;4.744;2022-08-30T05:19:38;15.40;99.90
8792;DHT22;4432;50.890;4.744;2022-08-30T05:22:04;15.50;99.90
8792;DHT22;4432;50.890;4.744;2022-08-30T05:24:29;15.50;99.90
8792;DHT22;4432;50.890;4.744;2022-08-30T05:26:57;15.50;99.90
8792;DHT22;4432;50.890;4.744;2022-08-30T05:29:23;15.60;99.90
8792;DHT22;4432;50.890;4.744;2022-08-30T05:31:49;15.60;99.90
8792;DHT22;4432;50.890;4.744;2022-08-30T05:34:15;15.70;99.90
8792;DHT22;4432;50.890;4.744;2022-08-30T05:36:41;15.70;99.90
8792;DHT22;4432;50.890;4.744;2022-08-30T05:39:09;15.90;99.90
8792;DHT22;4432;50.890;4.744;2022-08-30T05:41:36;16.00;99.90
8792;DHT22;4432;50.890;4.744;2022-08-30T05:44:03;16.10;99.90
8792;DHT22;4432;50.890;4.744;2022-08-30T05:46:29;16.10;99.90
8792;DHT22;4432;50.890;4.744;2022-08-30T05:48:58;16.20;99.90
8792;DHT22;4432;50.890;4.744;2022-08-30T05:51:27;16.40;99.90
8792;DHT22;4432;50.890;4.744;2022-08-30T05:53:53;16.50;99.90
8792;DHT22;4432;50.890;4.744;2022-08-30T05:56:24;16.60;99.90
8792;DHT22;4432;50.890;4.744;2022-08-30T05:58:51;16.70;99.90
8792;DHT22;4432;50.890;4.744;2022-08-30T06:01:23;16.70;99.90
8792;DHT22;4432;50.890;4.744;2022-08-30T06:03:49;16.80;99.90
8792;DHT22;4432;50.890;4.744;2022-08-30T06:06:15;16.90;99.90
8792;DHT22;4432;50.890;4.744;2022-08-30T06:08:41;17.00;99.90
8792;DHT22;4432;50.890;4.744;2022-08-30T06:11:11;17.10;99.90
8792;DHT22;4432;50.890;4.744;2022-08-30T06:13:38;17.10;99.90
8792;DHT22;4432;50.890;4.744;2022-08-30T06:16:04;17.20;99.90
8792;DHT22;4432;50.890;4.744;2022-08-30T06:18:30;17.30;99.90
8792;DHT22;4432;50.890;4.744;2022-08-30T06:20:56;17.30;99.90
8792;DHT22;4432;50.890;4.744;2022-08-30T06:23:22;17.60;99.90
8792;DHT22;4432;50.890;4.744;2022-08-30T06:25:47;17.70;99.90
8792;DHT22;4432;50.890;4.744;2022-08-30T06:28:13;17.70;99.90
8792;DHT22;4432;50.890;4.744;2022-08-30T06:30:41;17.70;99.90
8792;DHT22;4432;50.890;4.744;2022-08-30T06:33:07;17.60;99.90
8792;DHT22;4432;50.890;4.744;2022-08-30T06:35:35;17.60;99.90
8792;DHT22;4432;50.890;4.744;2022-08-30T06:38:01;17.60;99.90
8792;DHT22;4432;50.890;4.744;2022-08-30T06:40:27;17.70;99.90
8792;DHT22;4432;50.890;4.744;2022-08-30T06:42:53;17.70;99.90
8792;DHT22;4432;50.890;4.744;2022-08-30T06:45:19;17.80;99.90
8792;DHT22;4432;50.890;4.744;2022-08-30T06:47:46;17.90;99.90
8792;DHT22;4432;50.890;4.744;2022-08-30T06:50:13;18.00;99.90
8792;DHT22;4432;50.890;4.744;2022-08-30T06:52:41;18.10;99.90
8792;DHT22;4432;50.890;4.744;2022-08-30T06:55:08;18.30;99.90
8792;DHT22;4432;50.890;4.744;2022-08-30T06:57:34;18.40;99.90
8792;DHT22;4432;50.890;4.744;2022-08-30T07:00:00;18.40;99.90
8792;DHT22;4432;50.890;4.744;2022-08-30T07:02:27;18.60;99.90
8792;DHT22;4432;50.890;4.744;2022-08-30T07:04:53;18.70;99.90
8792;DHT22;4432;50.890;4.744;2022-08-30T07:07:19;18.70;99.90
8792;DHT22;4432;50.890;4.744;2022-08-30T07:09:45;18.70;99.90
8792;DHT22;4432;50.890;4.744;2022-08-30T07:12:12;18.80;99.90
8792;DHT22;4432;50.890;4.744;2022-08-30T07:14:38;18.80;99.90
8792;DHT22;4432;50.890;4.744;2022-08-30T07:17:05;18.90;99.90
8792;DHT22;4432;50.890;4.744;2022-08-30T07:19:52;19.00;99.90
8792;DHT22;4432;50.890;4.744;2022-08-30T07:22:18;19.00;99.90
8792;DHT22;4432;50.890;4.744;2022-08-30T07:24:44;19.10;99.90
8792;DHT22;4432;50.890;4.744;2022-08-30T07:27:10;19.20;99.90
8792;DHT22;4432;50.890;4.744;2022-08-30T07:29:35;19.40;99.90
8792;DHT22;4432;50.890;4.744;2022-08-30T07:32:01;19.60;99.90
8792;DHT22;4432;50.890;4.744;2022-08-30T07:34:27;19.70;99.90
8792;DHT22;4432;50.890;4.744;2022-08-30T07:36:53;19.80;99.90
8792;DHT22;4432;50.890;4.744;2022-08-30T07:39:19;20.00;99.90
8792;DHT22;4432;50.890;4.744;2022-08-30T07:41:45;20.20;99.90
8792;DHT22;4432;50.890;4.744;2022-08-30T07:44:11;20.40;99.90
8792;DHT22;4432;50.890;4.744;2022-08-30T07:46:38;20.40;99.90
8792;DHT22;4432;50.890;4.744;2022-08-30T07:49:05;20.40;99.90
8792;DHT22;4432;50.890;4.744;2022-08-30T07:51:31;20.30;99.90
8792;DHT22;4432;50.890;4.744;2022-08-30T07:53:57;20.40;99.90
8792;DHT22;4432;50.890;4.744;2022-08-30T07:56:24;20.40;99.90
8792;DHT22;4432;50.890;4.744;2022-08-30T07:58:50;20.50;99.90
8792;DHT22;4432;50.890;4.744;2022-08-30T08:01:18;20.60;99.90
8792;DHT22;4432;50.890;4.744;2022-08-30T08:03:43;20.60;99.90
8792;DHT22;4432;50.890;4.744;2022-08-30T08:06:12;20.80;99.90
8792;DHT22;4432;50.890;4.744;2022-08-30T08:08:39;20.80;99.90
8792;DHT22;4432;50.890;4.744;2022-08-30T08:11:07;21.00;99.90
8792;DHT22;4432;50.890;4.744;2022-08-30T08:13:33;21.10;99.90
8792;DHT22;4432;50.890;4.744;2022-08-30T08:15:59;21.20;99.90
8792;DHT22;4432;50.890;4.744;2022-08-30T08:18:25;21.40;99.90
8792;DHT22;4432;50.890;4.744;2022-08-30T08:20:50;21.50;99.90
8792;DHT22;4432;50.890;4.744;2022-08-30T08:23:16;21.60;99.90
8792;DHT22;4432;50.890;4.744;2022-08-30T08:25:42;21.70;99.90
8792;DHT22;4432;50.890;4.744;2022-08-30T08:28:08;22.00;99.90
8792;DHT22;4432;50.890;4.744;2022-08-30T08:30:35;22.20;99.90
8792;DHT22;4432;50.890;4.744;2022-08-30T08:33:04;22.30;99.90
8792;DHT22;4432;50.890;4.744;2022-08-30T08:35:30;22.40;99.90
8792;DHT22;4432;50.890;4.744;2022-08-30T08:37:56;22.30;99.90
8792;DHT22;4432;50.890;4.744;2022-08-30T08:40:22;22.30;99.90
8792;DHT22;4432;50.890;4.744;2022-08-30T08:45:43;22.40;99.90
8792;DHT22;4432;50.890;4.744;2022-08-30T08:48:22;22.50;99.90
8792;DHT22;4432;50.890;4.744;2022-08-30T08:50:50;22.60;99.90
8792;DHT22;4432;50.890;4.744;2022-08-30T08:53:35;23.00;99.90
8792;DHT22;4432;50.890;4.744;2022-08-30T08:56:20;23.10;99.90
8792;DHT22;4432;50.890;4.744;2022-08-30T08:58:55;22.90;99.90
8792;DHT22;4432;50.890;4.744;2022-08-30T09:01:25;23.00;99.90
8792;DHT22;4432;50.890;4.744;2022-08-30T09:03:52;23.30;99.90
8792;DHT22;4432;50.890;4.744;2022-08-30T09:06:45;23.70;99.90
8792;DHT22;4432;50.890;4.744;2022-08-30T09:09:13;24.30;99.90
8792;DHT22;4432;50.890;4.744;2022-08-30T09:11:41;24.30;99.90
8792;DHT22;4432;50.890;4.744;2022-08-30T09:14:15;24.30;99.90
8792;DHT22;4432;50.890;4.744;2022-08-30T09:16:57;24.00;99.90
8792;DHT22;4432;50.890;4.744;2022-08-30T09:20:05;24.40;99.90
8792;DHT22;4432;50.890;4.744;2022-08-30T09:22:37;25.00;99.90
8792;DHT22;4432;50.890;4.744;2022-08-30T09:27:43;24.80;99.90
8792;DHT22;4432;50.890;4.744;2022-08-30T09:30:21;25.00;99.90
8792;DHT22;4432;50.890;4.744;2022-08-30T09:32:54;25.30;99.90
8792;DHT22;4432;50.890;4.744;2022-08-30T09:35:31;25.20;99.90
8792;DHT22;4432;50.890;4.744;2022-08-30T09:38:15;25.30;99.90
8792;DHT22;4432;50.890;4.744;2022-08-30T09:40:45;24.60;99.90
8792;DHT22;4432;50.890;4.744;2022-08-30T09:43:21;24.40;99.90
8792;DHT22;4432;50.890;4.744;2022-08-30T09:46:08;24.20;99.90
8792;DHT22;4432;50.890;4.744;2022-08-30T09:48:43;24.20;99.90
8792;DHT22;4432;50.890;4.744;2022-08-30T09:56:19;24.50;99.90
8792;DHT22;4432;50.890;4.744;2022-08-30T09:59:38;24.50;99.90
8792;DHT22;4432;50.890;4.744;2022-08-30T10:08:15;25.60;99.30
8792;DHT22;4432;50.890;4.744;2022-08-30T10:10:46;25.80;98.00
8792;DHT22;4432;50.890;4.744;2022-08-30T10:13:42;25.40;98.60
8792;DHT22;4432;50.890;4.744;2022-08-30T10:22:14;25.40;97.80
8792;DHT22;4432;50.890;4.744;2022-08-30T10:24:48;25.60;97.60
8792;DHT22;4432;50.890;4.744;2022-08-30T10:27:27;25.80;95.80
8792;DHT22;4432;50.890;4.744;2022-08-30T10:30:07;25.80;95.70
8792;DHT22;4432;50.890;4.744;2022-08-30T10:40:29;27.00;91.80
8792;DHT22;4432;50.890;4.744;2022-08-30T10:43:29;27.10;91.40
8792;DHT22;4432;50.890;4.744;2022-08-30T10:46:01;26.60;90.70
8792;DHT22;4432;50.890;4.744;2022-08-30T10:48:41;26.70;90.00
8792;DHT22;4432;50.890;4.744;2022-08-30T10:51:14;26.80;90.20
8792;DHT22;4432;50.890;4.744;2022-08-30T10:53:48;26.70;90.20
8792;DHT22;4432;50.890;4.744;2022-08-30T10:56:21;26.30;91.10
8792;DHT22;4432;50.890;4.744;2022-08-30T10:58:49;26.40;90.30
8792;DHT22;4432;50.890;4.744;2022-08-30T11:15:01;26.70;83.00
8792;DHT22;4432;50.890;4.744;2022-08-30T11:17:43;26.80;83.90
8792;DHT22;4432;50.890;4.744;2022-08-30T11:20:46;27.30;76.90
8792;DHT22;4432;50.890;4.744;2022-08-30T11:33:57;27.20;76.00
8792;DHT22;4432;50.890;4.744;2022-08-30T11:41:42;26.70;76.30
8792;DHT22;4432;50.890;4.744;2022-08-30T11:46:47;27.70;70.20
8792;DHT22;4432;50.890;4.744;2022-08-30T11:52:10;27.10;65.60
8792;DHT22;4432;50.890;4.744;2022-08-30T12:00:05;28.10;62.90
8792;DHT22;4432;50.890;4.744;2022-08-30T12:02:57;27.60;62.50
8792;DHT22;4432;50.890;4.744;2022-08-30T12:08:05;27.70;62.20
8792;DHT22;4432;50.890;4.744;2022-08-30T12:10:44;27.80;62.40
8792;DHT22;4432;50.890;4.744;2022-08-30T12:16:11;27.70;60.70
8792;DHT22;4432;50.890;4.744;2022-08-30T12:21:24;27.30;60.30
8792;DHT22;4432;50.890;4.744;2022-08-30T12:23:56;27.20;63.60
8792;DHT22;4432;50.890;4.744;2022-08-30T12:29:04;27.80;65.00
8792;DHT22;4432;50.890;4.744;2022-08-30T12:31:30;28.20;61.20
8792;DHT22;4432;50.890;4.744;2022-08-30T12:33:59;27.80;61.70
8792;DHT22;4432;50.890;4.744;2022-08-30T12:36:47;27.50;59.40
8792;DHT22;4432;50.890;4.744;2022-08-30T12:39:17;27.20;60.10
8792;DHT22;4432;50.890;4.744;2022-08-30T12:41:44;27.50;62.50
8792;DHT22;4432;50.890;4.744;2022-08-30T12:44:23;27.30;62.10
8792;DHT22;4432;50.890;4.744;2022-08-30T12:46:59;27.40;62.70
8792;DHT22;4432;50.890;4.744;2022-08-30T12:49:29;27.40;60.50
8792;DHT22;4432;50.890;4.744;2022-08-30T12:51:56;27.50;61.60
8792;DHT22;4432;50.890;4.744;2022-08-30T12:54:40;27.30;61.10
8792;DHT22;4432;50.890;4.744;2022-08-30T12:57:06;27.20;62.10
8792;DHT22;4432;50.890;4.744;2022-08-30T12:59:54;27.60;61.40
8792;DHT22;4432;50.890;4.744;2022-08-30T13:02:26;27.90;61.00
8792;DHT22;4432;50.890;4.744;2022-08-30T13:04:54;27.70;61.40
8792;DHT22;4432;50.890;4.744;2022-08-30T13:07:33;27.50;59.80
8792;DHT22;4432;50.890;4.744;2022-08-30T13:10:12;27.20;60.20
8792;DHT22;4432;50.890;4.744;2022-08-30T13:12:38;26.90;61.60
8792;DHT22;4432;50.890;4.744;2022-08-30T13:15:20;26.60;62.50
8792;DHT22;4432;50.890;4.744;2022-08-30T13:18:16;26.60;62.70
8792;DHT22;4432;50.890;4.744;2022-08-30T13:20:43;26.30;64.60
8792;DHT22;4432;50.890;4.744;2022-08-30T13:23:11;26.30;65.60
8792;DHT22;4432;50.890;4.744;2022-08-30T13:25:45;26.40;66.40
8792;DHT22;4432;50.890;4.744;2022-08-30T13:28:10;26.70;65.50
8792;DHT22;4432;50.890;4.744;2022-08-30T13:30:36;27.00;63.30
8792;DHT22;4432;50.890;4.744;2022-08-30T13:33:02;27.40;63.10
8792;DHT22;4432;50.890;4.744;2022-08-30T13:35:29;27.40;61.40
8792;DHT22;4432;50.890;4.744;2022-08-30T13:37:56;27.40;61.30
8792;DHT22;4432;50.890;4.744;2022-08-30T13:40:24;27.10;60.90
8792;DHT22;4432;50.890;4.744;2022-08-30T13:42:50;27.10;61.70
8792;DHT22;4432;50.890;4.744;2022-08-30T13:45:17;27.10;60.30
8792;DHT22;4432;50.890;4.744;2022-08-30T13:47:44;27.30;62.60
8792;DHT22;4432;50.890;4.744;2022-08-30T13:50:11;27.40;60.40
8792;DHT22;4432;50.890;4.744;2022-08-30T13:52:37;27.50;59.60
8792;DHT22;4432;50.890;4.744;2022-08-30T13:55:04;27.40;59.60
8792;DHT22;4432;50.890;4.744;2022-08-30T13:57:30;27.20;59.10
8792;DHT22;4432;50.890;4.744;2022-08-30T13:59:57;27.20;59.70
8792;DHT22;4432;50.890;4.744;2022-08-30T14:02:23;27.20;58.20
8792;DHT22;4432;50.890;4.744;2022-08-30T14:04:49;26.90;59.20
8792;DHT22;4432;50.890;4.744;2022-08-30T14:07:14;27.00;59.00
8792;DHT22;4432;50.890;4.744;2022-08-30T14:09:40;27.00;59.50
8792;DHT22;4432;50.890;4.744;2022-08-30T14:12:06;27.10;59.50
8792;DHT22;4432;50.890;4.744;2022-08-30T14:14:32;27.30;59.40
8792;DHT22;4432;50.890;4.744;2022-08-30T14:16:57;27.00;58.60
8792;DHT22;4432;50.890;4.744;2022-08-30T14:19:23;26.90;59.40
8792;DHT22;4432;50.890;4.744;2022-08-30T14:21:49;26.90;60.40
8792;DHT22;4432;50.890;4.744;2022-08-30T14:24:15;27.00;59.50
8792;DHT22;4432;50.890;4.744;2022-08-30T14:26:44;27.00;59.80
8792;DHT22;4432;50.890;4.744;2022-08-30T14:29:15;27.00;60.60
8792;DHT22;4432;50.890;4.744;2022-08-30T14:31:42;26.90;60.50
8792;DHT22;4432;50.890;4.744;2022-08-30T14:34:09;27.00;59.70
8792;DHT22;4432;50.890;4.744;2022-08-30T14:36:37;27.10;58.80
8792;DHT22;4432;50.890;4.744;2022-08-30T14:39:05;27.10;58.30
8792;DHT22;4432;50.890;4.744;2022-08-30T14:41:32;27.00;57.30
8792;DHT22;4432;50.890;4.744;2022-08-30T14:43:57;27.10;58.30
8792;DHT22;4432;50.890;4.744;2022-08-30T14:46:24;26.90;58.20
8792;DHT22;4432;50.890;4.744;2022-08-30T14:48:52;27.00;57.90
8792;DHT22;4432;50.890;4.744;2022-08-30T14:51:20;27.00;58.20
8792;DHT22;4432;50.890;4.744;2022-08-30T14:53:49;27.00;59.00
8792;DHT22;4432;50.890;4.744;2022-08-30T14:56:17;27.30;58.00
8792;DHT22;4432;50.890;4.744;2022-08-30T14:58:43;27.40;57.20
8792;DHT22;4432;50.890;4.744;2022-08-30T15:01:10;26.90;57.00
8792;DHT22;4432;50.890;4.744;2022-08-30T15:03:37;26.90;58.40
8792;DHT22;4432;50.890;4.744;2022-08-30T15:06:04;27.10;57.40
8792;DHT22;4432;50.890;4.744;2022-08-30T15:08:31;27.10;56.50
8792;DHT22;4432;50.890;4.744;2022-08-30T15:10:57;27.00;57.10
8792;DHT22;4432;50.890;4.744;2022-08-30T15:13:24;26.90;57.50
8792;DHT22;4432;50.890;4.744;2022-08-30T15:15:50;26.80;58.20
8792;DHT22;4432;50.890;4.744;2022-08-30T15:18:16;26.70;58.10
8792;DHT22;4432;50.890;4.744;2022-08-30T15:20:48;26.70;57.90
8792;DHT22;4432;50.890;4.744;2022-08-30T15:23:15;26.60;60.10
8792;DHT22;4432;50.890;4.744;2022-08-30T15:25:41;26.60;61.20
8792;DHT22;4432;50.890;4.744;2022-08-30T15:28:08;26.40;60.70
8792;DHT22;4432;50.890;4.744;2022-08-30T15:30:34;26.30;62.00
8792;DHT22;4432;50.890;4.744;2022-08-30T15:33:01;26.20;63.40
8792;DHT22;4432;50.890;4.744;2022-08-30T15:35:27;26.30;63.60
8792;DHT22;4432;50.890;4.744;2022-08-30T15:37:53;26.30;63.40
8792;DHT22;4432;50.890;4.744;2022-08-30T15:40:18;26.30;63.60
8792;DHT22;4432;50.890;4.744;2022-08-30T15:42:44;26.30;63.70
8792;DHT22;4432;50.890;4.744;2022-08-30T15:45:10;26.30;62.70
8792;DHT22;4432;50.890;4.744;2022-08-30T15:47:36;26.30;62.10
8792;DHT22;4432;50.890;4.744;2022-08-30T15:50:05;26.00;62.90
8792;DHT22;4432;50.890;4.744;2022-08-30T15:52:31;25.90;64.00
8792;DHT22;4432;50.890;4.744;2022-08-30T15:54:57;26.00;64.30
8792;DHT22;4432;50.890;4.744;2022-08-30T15:57:23;26.10;63.60
8792;DHT22;4432;50.890;4.744;2022-08-30T15:59:49;26.10;64.50
8792;DHT22;4432;50.890;4.744;2022-08-30T16:02:15;26.10;63.30
8792;DHT22;4432;50.890;4.744;2022-08-30T16:04:41;26.10;63.50
8792;DHT22;4432;50.890;4.744;2022-08-30T16:07:07;26.20;63.60
8792;DHT22;4432;50.890;4.744;2022-08-30T16:09:34;26.20;64.00
8792;DHT22;4432;50.890;4.744;2022-08-30T16:12:02;26.20;63.30
8792;DHT22;4432;50.890;4.744;2022-08-30T16:14:28;26.20;63.60
8792;DHT22;4432;50.890;4.744;2022-08-30T16:16:55;26.10;63.60
8792;DHT22;4432;50.890;4.744;2022-08-30T16:19:21;26.20;63.30
8792;DHT22;4432;50.890;4.744;2022-08-30T16:21:46;26.20;62.60
8792;DHT22;4432;50.890;4.744;2022-08-30T16:24:13;26.20;64.10
8792;DHT22;4432;50.890;4.744;2022-08-30T16:26:41;26.30;62.40
8792;DHT22;4432;50.890;4.744;2022-08-30T16:29:07;26.10;62.60
8792;DHT22;4432;50.890;4.744;2022-08-30T16:31:34;26.00;63.40
8792;DHT22;4432;50.890;4.744;2022-08-30T16:34:00;26.10;63.70
8792;DHT22;4432;50.890;4.744;2022-08-30T16:36:27;26.00;62.70
8792;DHT22;4432;50.890;4.744;2022-08-30T16:38:53;25.90;63.00
8792;DHT22;4432;50.890;4.744;2022-08-30T16:41:20;25.80;63.20
8792;DHT22;4432;50.890;4.744;2022-08-30T16:43:47;25.70;63.80
8792;DHT22;4432;50.890;4.744;2022-08-30T16:46:15;25.50;64.30
8792;DHT22;4432;50.890;4.744;2022-08-30T16:48:42;25.40;65.60
8792;DHT22;4432;50.890;4.744;2022-08-30T16:51:11;25.40;65.50
8792;DHT22;4432;50.890;4.744;2022-08-30T16:53:37;25.20;66.10
8792;DHT22;4432;50.890;4.744;2022-08-30T16:56:09;25.10;66.60
8792;DHT22;4432;50.890;4.744;2022-08-30T16:58:35;25.10;67.40
8792;DHT22;4432;50.890;4.744;2022-08-30T17:01:01;25.10;67.70
8792;DHT22;4432;50.890;4.744;2022-08-30T17:03:27;25.10;67.80
8792;DHT22;4432;50.890;4.744;2022-08-30T17:05:52;25.00;68.10
8792;DHT22;4432;50.890;4.744;2022-08-30T17:08:19;24.90;68.00
8792;DHT22;4432;50.890;4.744;2022-08-30T17:10:45;24.80;68.30
8792;DHT22;4432;50.890;4.744;2022-08-30T17:13:10;24.80;69.00
8792;DHT22;4432;50.890;4.744;2022-08-30T17:15:36;24.70;69.80
8792;DHT22;4432;50.890;4.744;2022-08-30T17:18:03;24.60;69.10
8792;DHT22;4432;50.890;4.744;2022-08-30T17:20:31;24.50;69.40
8792;DHT22;4432;50.890;4.744;2022-08-30T17:22:58;24.40;69.80
8792;DHT22;4432;50.890;4.744;2022-08-30T17:25:25;24.40;69.80
8792;DHT22;4432;50.890;4.744;2022-08-30T17:27:51;24.40;70.50
8792;DHT22;4432;50.890;4.744;2022-08-30T17:30:17;24.30;70.40
8792;DHT22;4432;50.890;4.744;2022-08-30T17:32:42;24.30;70.80